createdAt,value
2023-05-09T00:00:29.936Z,9.33
2023-05-09T00:02:09.693Z,9.29
2023-05-09T00:03:49.525Z,9.28
2023-05-09T00:05:29.219Z,9.25
2023-05-09T00:07:08.978Z,9.24
2023-05-09T00:08:48.735Z,9.2
2023-05-09T00:10:28.508Z,9.16
2023-05-09T00:12:08.314Z,9.14
2023-05-09T00:13:48.027Z,9.14
2023-05-09T00:15:27.796Z,9.13
2023-05-09T00:17:07.640Z,9.1
2023-05-09T00:18:47.341Z,9.07
2023-05-09T00:20:27.090Z,9.07
2023-05-09T00:22:06.845Z,9.03
2023-05-09T00:25:26.394Z,9
2023-05-09T00:27:06.194Z,8.99
2023-05-09T00:28:45.904Z,8.96
2023-05-09T00:32:05.448Z,8.95
2023-05-09T00:33:45.206Z,8.92
2023-05-09T00:35:24.959Z,8.89
2023-05-09T00:37:04.734Z,8.89
2023-05-09T00:38:44.564Z,8.85
2023-05-09T00:40:24.261Z,8.88
2023-05-09T00:42:04.036Z,8.84
2023-05-09T00:45:23.560Z,8.81
2023-05-09T00:47:03.365Z,8.8
2023-05-09T00:48:43.103Z,8.8
2023-05-09T00:50:22.882Z,8.78
2023-05-09T00:52:02.618Z,8.72
2023-05-09T00:53:42.500Z,8.76
2023-05-09T00:55:22.125Z,8.74
2023-05-09T00:57:01.901Z,8.74
2023-05-09T00:58:41.687Z,8.72
2023-05-09T01:02:01.192Z,8.68
2023-05-09T01:03:40.951Z,8.68
2023-05-09T01:05:20.730Z,8.67
2023-05-09T01:07:00.523Z,8.67
2023-05-09T01:08:40.238Z,8.67
2023-05-09T01:10:20.004Z,8.67
2023-05-09T01:11:59.773Z,8.66
2023-05-09T01:13:39.593Z,8.64
2023-05-09T01:15:19.306Z,8.64
2023-05-09T01:16:59.087Z,8.63
2023-05-09T01:18:38.846Z,8.62
2023-05-09T01:20:18.587Z,8.6
2023-05-09T01:21:58.345Z,8.6
2023-05-09T01:23:38.188Z,8.58
2023-05-09T01:25:17.891Z,8.58
2023-05-09T01:26:57.756Z,8.59
2023-05-09T01:28:37.415Z,8.58
2023-05-09T01:30:17.171Z,8.56
2023-05-09T01:31:56.926Z,8.55
2023-05-09T01:33:36.756Z,8.53
2023-05-09T01:35:16.456Z,8.51
2023-05-09T01:36:56.229Z,8.51
2023-05-09T01:38:35.994Z,8.47
2023-05-09T01:40:15.793Z,8.47
2023-05-09T01:41:55.544Z,8.46
2023-05-09T01:43:35.430Z,8.46
2023-05-09T01:46:54.812Z,8.43
2023-05-09T01:48:34.622Z,8.43
2023-05-09T01:50:14.455Z,8.43
2023-05-09T01:51:54.121Z,8.42
2023-05-09T01:53:33.882Z,8.42
2023-05-09T01:55:13.654Z,8.42
2023-05-09T01:56:53.391Z,8.39
2023-05-09T01:58:33.204Z,8.39
2023-05-09T02:00:12.929Z,8.38
2023-05-09T02:01:52.683Z,8.39
2023-05-09T02:05:12.206Z,8.37
2023-05-09T02:06:51.973Z,8.35
2023-05-09T02:08:31.738Z,8.34
2023-05-09T02:10:11.545Z,8.33
2023-05-09T02:11:51.259Z,8.33
2023-05-09T02:13:31.035Z,8.31
2023-05-09T02:15:10.797Z,8.29
2023-05-09T02:16:50.557Z,8.29
2023-05-09T02:18:30.341Z,8.3
2023-05-09T02:20:10.086Z,8.31
2023-05-09T02:21:49.866Z,8.29
2023-05-09T02:23:29.625Z,8.28
2023-05-09T02:25:09.389Z,8.26
2023-05-09T02:26:49.173Z,8.26
2023-05-09T02:28:28.906Z,8.24
2023-05-09T02:30:08.684Z,8.22
2023-05-09T02:31:48.431Z,8.2
2023-05-09T02:33:28.200Z,8.17
2023-05-09T02:35:07.952Z,8.18
2023-05-09T02:36:47.733Z,8.2
2023-05-09T02:38:27.505Z,8.18
2023-05-09T02:40:07.278Z,8.17
2023-05-09T02:41:47.029Z,8.16
2023-05-09T02:43:26.790Z,8.14
2023-05-09T02:45:06.549Z,8.14
2023-05-09T02:46:46.310Z,8.14
2023-05-09T02:48:26.069Z,8.13
2023-05-09T02:50:05.862Z,8.12
2023-05-09T02:53:25.377Z,8.1
2023-05-09T02:55:05.132Z,8.08
2023-05-09T02:56:44.881Z,8.08
2023-05-09T02:58:24.759Z,8.06
2023-05-09T03:00:04.413Z,8.04
2023-05-09T03:01:44.174Z,8.04
2023-05-09T03:03:23.953Z,8.02
2023-05-09T03:05:03.709Z,7.97
2023-05-09T03:06:43.476Z,8
2023-05-09T03:10:03.026Z,7.94
2023-05-09T03:11:42.786Z,7.96
2023-05-09T03:13:22.528Z,7.95
2023-05-09T03:15:02.291Z,7.95
2023-05-09T03:16:42.057Z,7.92
2023-05-09T03:18:21.823Z,7.91
2023-05-09T03:20:01.582Z,7.91
2023-05-09T03:21:41.373Z,7.88
2023-05-09T03:23:21.109Z,7.88
2023-05-09T03:25:00.874Z,7.87
2023-05-09T03:26:40.658Z,7.85
2023-05-09T03:28:20.394Z,7.81
2023-05-09T03:30:00.187Z,7.81
2023-05-09T03:31:39.941Z,7.75
2023-05-09T03:33:19.694Z,7.77
2023-05-09T03:34:59.449Z,7.76
2023-05-09T03:36:39.233Z,7.75
2023-05-09T03:38:19.003Z,7.76
2023-05-09T03:39:58.767Z,7.74
2023-05-09T03:41:38.528Z,7.71
2023-05-09T03:44:58.058Z,7.69
2023-05-09T03:48:17.695Z,7.71
2023-05-09T03:49:57.341Z,7.68
2023-05-09T03:51:37.109Z,7.68
2023-05-09T03:56:36.456Z,7.65
2023-05-09T03:58:16.211Z,7.64
2023-05-09T03:59:55.922Z,7.64
2023-05-09T04:01:35.695Z,7.64
2023-05-09T04:03:15.456Z,7.61
2023-05-09T04:04:55.207Z,7.64
2023-05-09T04:06:34.979Z,7.61
2023-05-09T04:08:14.752Z,7.59
2023-05-09T04:09:54.498Z,7.58
2023-05-09T04:11:34.275Z,7.51
2023-05-09T04:13:14.045Z,7.61
2023-05-09T04:14:53.804Z,7.61
2023-05-09T04:16:33.565Z,7.5
2023-05-09T04:18:13.406Z,7.58
2023-05-09T04:19:53.087Z,7.57
2023-05-09T04:21:32.869Z,7.51
2023-05-09T04:23:12.613Z,7.58
2023-05-09T04:24:52.364Z,7.63
2023-05-09T04:26:32.166Z,7.56
2023-05-09T04:29:51.675Z,7.58
2023-05-09T04:31:31.440Z,7.58
2023-05-09T04:33:11.207Z,7.58
2023-05-09T04:34:51.020Z,7.57
2023-05-09T04:36:30.743Z,7.58
2023-05-09T04:38:10.515Z,7.6
2023-05-09T04:39:50.264Z,7.6
2023-05-09T04:41:30.023Z,7.58
2023-05-09T04:43:09.777Z,7.59
2023-05-09T04:44:49.557Z,7.62
2023-05-09T04:46:29.327Z,7.61
2023-05-09T04:48:09.074Z,7.6
2023-05-09T04:49:48.844Z,7.61
2023-05-09T04:51:28.591Z,7.54
2023-05-09T04:53:08.508Z,7.61
2023-05-09T04:54:48.164Z,7.62
2023-05-09T04:56:27.905Z,7.64
2023-05-09T04:58:07.666Z,7.65
2023-05-09T04:59:47.456Z,7.62
2023-05-09T05:01:27.188Z,7.65
2023-05-09T05:03:06.942Z,7.63
2023-05-09T05:04:46.718Z,7.63
2023-05-09T05:06:26.469Z,7.64
2023-05-09T05:08:06.279Z,7.64
2023-05-09T05:09:46.018Z,7.67
2023-05-09T05:11:25.766Z,7.67
2023-05-09T05:13:05.542Z,7.68
2023-05-09T05:14:45.298Z,7.68
2023-05-09T05:16:25.113Z,7.74
2023-05-09T05:19:44.593Z,7.74
2023-05-09T05:21:24.349Z,7.73
2023-05-09T05:23:04.105Z,7.72
2023-05-09T05:24:43.892Z,7.74
2023-05-09T05:26:23.676Z,7.76
2023-05-09T05:28:03.421Z,7.76
2023-05-09T05:29:43.163Z,7.77
2023-05-09T05:31:22.938Z,7.75
2023-05-09T05:33:02.739Z,7.83
2023-05-09T05:34:42.468Z,7.83
2023-05-09T05:36:22.230Z,7.83
2023-05-09T05:38:02.019Z,7.83
2023-05-09T05:39:41.744Z,7.84
2023-05-09T05:41:21.500Z,7.84
2023-05-09T05:43:01.303Z,7.85
2023-05-09T05:44:41.098Z,7.76
2023-05-09T05:48:00.628Z,7.88
2023-05-09T05:49:40.496Z,7.89
2023-05-09T05:51:20.152Z,7.91
2023-05-09T05:52:59.873Z,7.92
2023-05-09T05:54:39.713Z,7.95
2023-05-09T05:57:59.181Z,7.99
2023-05-09T05:59:38.940Z,8
2023-05-09T06:01:18.705Z,8.01
2023-05-09T06:02:58.436Z,8.06
2023-05-09T06:04:38.212Z,8.09
2023-05-09T06:06:17.976Z,8.08
2023-05-09T06:07:57.736Z,8.08
2023-05-09T06:09:37.503Z,8.13
2023-05-09T06:11:17.384Z,8.14
2023-05-09T06:12:57.031Z,8.06
2023-05-09T06:14:36.791Z,8.2
2023-05-09T06:16:16.593Z,8.22
2023-05-09T06:17:56.330Z,8.22
2023-05-09T06:19:36.063Z,8.24
2023-05-09T06:21:15.855Z,8.27
2023-05-09T06:22:55.607Z,8.29
2023-05-09T06:24:35.375Z,8.3
2023-05-09T06:26:15.125Z,8.35
2023-05-09T06:27:54.892Z,8.39
2023-05-09T06:29:34.674Z,8.39
2023-05-09T06:31:14.434Z,8.42
2023-05-09T06:32:54.212Z,8.46
2023-05-09T06:34:33.987Z,8.47
2023-05-09T06:36:13.736Z,8.55
2023-05-09T06:37:53.485Z,8.47
2023-05-09T06:39:33.242Z,8.59
2023-05-09T06:41:13.018Z,8.68
2023-05-09T06:42:52.811Z,8.68
2023-05-09T06:44:32.678Z,8.72
2023-05-09T06:46:12.297Z,8.75
2023-05-09T06:47:52.071Z,8.8
2023-05-09T06:49:31.840Z,8.85
2023-05-09T06:51:11.600Z,8.85
2023-05-09T06:52:51.362Z,8.95
2023-05-09T06:54:31.134Z,8.97
2023-05-09T06:56:10.899Z,8.99
2023-05-09T06:59:30.428Z,9.1
2023-05-09T07:01:10.180Z,9.16
2023-05-09T07:02:50.007Z,9.26
2023-05-09T07:04:29.707Z,9.32
2023-05-09T07:06:09.470Z,9.39
2023-05-09T07:07:49.295Z,9.46
2023-05-09T07:09:28.992Z,9.54
2023-05-09T07:11:08.769Z,9.62
2023-05-09T07:12:48.525Z,9.71
2023-05-09T07:14:28.329Z,9.81
2023-05-09T07:16:08.054Z,9.85
2023-05-09T07:17:47.811Z,9.93
2023-05-09T07:19:27.597Z,10.03
2023-05-09T07:21:07.358Z,10.12
2023-05-09T07:22:47.118Z,10.2
2023-05-09T07:24:26.878Z,10.29
2023-05-09T07:26:06.671Z,10.36
2023-05-09T07:27:46.412Z,10.46
2023-05-09T07:29:26.163Z,10.55
2023-05-09T07:31:05.948Z,10.65
2023-05-09T07:32:45.693Z,10.72
2023-05-09T07:34:25.467Z,10.83
2023-05-09T07:36:05.281Z,10.9
2023-05-09T07:37:44.979Z,10.98
2023-05-09T07:39:24.757Z,11.08
2023-05-09T07:41:04.519Z,11.14
2023-05-09T07:42:44.290Z,11.26
2023-05-09T07:44:24.030Z,11.33
2023-05-09T07:46:03.807Z,11.41
2023-05-09T07:49:23.336Z,11.59
2023-05-09T07:51:03.116Z,11.67
2023-05-09T07:52:42.857Z,11.71
2023-05-09T07:54:22.665Z,11.78
2023-05-09T07:56:02.381Z,11.85
2023-05-09T07:57:42.155Z,11.89
2023-05-09T07:59:21.913Z,11.95
2023-05-09T08:01:01.680Z,12.03
2023-05-09T08:02:41.435Z,12.09
2023-05-09T08:04:21.200Z,12.16
2023-05-09T08:06:00.972Z,12.19
2023-05-09T08:07:40.748Z,12.26
2023-05-09T08:09:20.486Z,12.34
2023-05-09T08:11:00.248Z,12.41
2023-05-09T08:12:40.034Z,12.47
2023-05-09T08:14:19.794Z,12.55
2023-05-09T08:15:59.541Z,12.61
2023-05-09T08:17:39.314Z,12.67
2023-05-09T08:19:19.095Z,12.72
2023-05-09T08:20:58.838Z,12.79
2023-05-09T08:22:38.610Z,12.85
2023-05-09T08:24:18.368Z,12.92
2023-05-09T08:25:58.158Z,12.97
2023-05-09T08:27:37.911Z,13.02
2023-05-09T08:29:17.664Z,13.1
2023-05-09T08:30:57.452Z,13.17
2023-05-09T08:32:37.221Z,13.24
2023-05-09T08:34:16.954Z,13.29
2023-05-09T08:35:56.800Z,13.37
2023-05-09T08:37:36.499Z,13.46
2023-05-09T08:39:16.295Z,13.52
2023-05-09T08:40:56.015Z,13.58
2023-05-09T08:42:35.780Z,13.67
2023-05-09T08:44:15.566Z,13.72
2023-05-09T08:45:55.404Z,13.72
2023-05-09T08:47:35.076Z,13.82
2023-05-09T08:49:14.850Z,13.86
2023-05-09T08:50:54.607Z,13.9
2023-05-09T08:52:34.359Z,13.97
2023-05-09T08:54:14.139Z,14
2023-05-09T08:55:53.886Z,14.05
2023-05-09T08:57:33.717Z,14.1
2023-05-09T08:59:13.432Z,14.11
2023-05-09T09:00:53.199Z,14.17
2023-05-09T09:02:32.944Z,14.2
2023-05-09T09:04:12.715Z,14.23
2023-05-09T09:05:52.475Z,14.26
2023-05-09T09:07:32.234Z,14.29
2023-05-09T09:09:12.016Z,14.34
2023-05-09T09:10:51.803Z,14.33
2023-05-09T09:12:31.547Z,14.4
2023-05-09T09:17:30.818Z,14.6
2023-05-09T09:19:10.575Z,14.64
2023-05-09T09:20:50.356Z,14.69
2023-05-09T09:22:30.157Z,14.74
2023-05-09T09:24:09.894Z,14.8
2023-05-09T09:25:49.651Z,14.83
2023-05-09T09:27:29.406Z,14.85
2023-05-09T09:29:09.195Z,14.92
2023-05-09T09:30:48.958Z,15.01
2023-05-09T09:32:28.742Z,15.06
2023-05-09T09:34:08.461Z,15.09
2023-05-09T09:35:48.248Z,15.13
2023-05-09T09:37:28.061Z,15.16
2023-05-09T09:39:07.860Z,15.22
2023-05-09T09:40:47.565Z,15.25
2023-05-09T09:42:28.232Z,15.3
2023-05-09T09:44:07.084Z,15.33
2023-05-09T09:45:46.832Z,15.39
2023-05-09T09:47:26.590Z,15.46
2023-05-09T09:49:06.347Z,15.48
2023-05-09T09:50:46.110Z,15.52
2023-05-09T09:52:25.873Z,15.56
2023-05-09T09:54:05.666Z,15.58
2023-05-09T09:55:45.385Z,15.61
2023-05-09T09:57:25.171Z,15.67
2023-05-09T09:59:04.923Z,15.71
2023-05-09T10:00:44.798Z,15.76
2023-05-09T10:02:24.437Z,15.79
2023-05-09T10:05:43.973Z,15.88
2023-05-09T10:07:23.750Z,15.89
2023-05-09T10:09:03.578Z,15.92
2023-05-09T10:10:43.290Z,15.97
2023-05-09T10:12:23.028Z,16.02
2023-05-09T10:14:02.795Z,16.04
2023-05-09T10:15:42.551Z,16.12
2023-05-09T10:17:22.367Z,16.12
2023-05-09T10:19:02.243Z,16.14
2023-05-09T10:20:42.061Z,16.19
2023-05-09T10:22:21.766Z,16.26
2023-05-09T10:24:01.574Z,16.29
2023-05-09T10:25:41.294Z,16.33
2023-05-09T10:27:21.082Z,16.36
2023-05-09T10:29:00.791Z,16.42
2023-05-09T10:30:40.428Z,16.42
2023-05-09T10:32:20.217Z,16.45
2023-05-09T10:33:59.998Z,16.46
2023-05-09T10:35:39.979Z,16.48
2023-05-09T10:37:19.636Z,16.54
2023-05-09T10:38:59.406Z,16.57
2023-05-09T10:40:39.186Z,16.61
2023-05-09T10:42:18.801Z,16.67
2023-05-09T10:43:58.761Z,16.71
2023-05-09T10:45:38.365Z,16.77
2023-05-09T10:47:18.166Z,16.79
2023-05-09T10:48:57.884Z,16.86
2023-05-09T10:50:37.717Z,16.91
2023-05-09T10:52:17.424Z,16.95
2023-05-09T10:53:57.129Z,16.96
2023-05-09T10:55:36.996Z,17.02
2023-05-09T10:57:16.824Z,17.1
2023-05-09T10:58:56.494Z,17.09
2023-05-09T11:00:36.190Z,17.23
2023-05-09T11:02:15.941Z,17.24
2023-05-09T11:03:55.713Z,17.25
2023-05-09T11:05:35.569Z,17.29
2023-05-09T11:07:15.287Z,17.32
2023-05-09T11:08:55.041Z,17.37
2023-05-09T11:10:34.793Z,17.42
2023-05-09T11:12:14.599Z,17.44
2023-05-09T11:13:54.371Z,17.37
2023-05-09T11:15:34.202Z,17.49
2023-05-09T11:17:13.895Z,17.52
2023-05-09T11:18:53.645Z,17.54
2023-05-09T11:20:33.377Z,17.57
2023-05-09T11:22:13.127Z,17.6
2023-05-09T11:23:52.891Z,17.66
2023-05-09T11:25:32.667Z,17.71
2023-05-09T11:27:12.425Z,17.76
2023-05-09T11:28:52.166Z,17.83
2023-05-09T11:30:32.125Z,17.86
2023-05-09T11:32:11.736Z,17.94
2023-05-09T11:33:51.474Z,17.95
2023-05-09T11:35:31.328Z,18.01
2023-05-09T11:37:10.999Z,18
2023-05-09T11:38:50.945Z,18.03
2023-05-09T11:40:30.549Z,18.08
2023-05-09T11:42:10.456Z,18.1
2023-05-09T11:43:50.102Z,18.14
2023-05-09T11:45:29.987Z,18.17
2023-05-09T11:47:09.687Z,18.18
2023-05-09T11:48:49.452Z,18.2
2023-05-09T11:50:29.192Z,18.24
2023-05-09T11:52:08.884Z,18.27
2023-05-09T11:53:48.657Z,18.33
2023-05-09T11:55:28.447Z,18.37
2023-05-09T11:57:08.169Z,18.41
2023-05-09T11:58:47.927Z,18.44
2023-05-09T12:00:27.762Z,18.48
2023-05-09T12:02:07.490Z,18.54
2023-05-09T12:03:47.454Z,18.6
2023-05-09T12:07:06.860Z,18.71
2023-05-09T12:08:46.516Z,18.79
2023-05-09T12:10:26.376Z,18.87
2023-05-09T12:12:06.033Z,18.9
2023-05-09T12:13:45.912Z,18.95
2023-05-09T12:15:25.665Z,18.93
2023-05-09T12:17:05.342Z,19.03
2023-05-09T12:20:24.910Z,19.12
2023-05-09T12:22:04.713Z,19.18
2023-05-09T12:23:44.553Z,19.23
2023-05-09T12:25:24.151Z,19.29
2023-05-09T12:27:04.007Z,19.36
2023-05-09T12:28:43.822Z,19.4
2023-05-09T12:30:23.441Z,19.48
2023-05-09T12:32:03.299Z,19.53
2023-05-09T12:33:42.967Z,19.57
2023-05-09T12:35:22.762Z,19.64
2023-05-09T12:37:02.488Z,19.7
2023-05-09T12:38:42.359Z,19.71
2023-05-09T12:40:22.027Z,19.79
2023-05-09T12:43:41.743Z,19.89
2023-05-09T12:45:21.492Z,19.92
2023-05-09T12:47:01.308Z,19.96
2023-05-09T12:48:41.003Z,19.95
2023-05-09T12:50:20.760Z,20.06
2023-05-09T12:53:40.154Z,20.16
2023-05-09T12:55:20.005Z,20.15
2023-05-09T12:56:59.674Z,20.17
2023-05-09T12:58:39.628Z,20.2
2023-05-09T13:00:19.209Z,20.25
2023-05-09T13:01:59.203Z,20.32
2023-05-09T13:03:38.756Z,20.37
2023-05-09T13:05:18.543Z,20.44
2023-05-09T13:06:58.334Z,20.48
2023-05-09T13:08:38.017Z,20.55
2023-05-09T13:10:17.781Z,20.61
2023-05-09T13:11:57.605Z,20.66
2023-05-09T13:13:37.456Z,20.7
2023-05-09T13:15:17.077Z,20.72
2023-05-09T13:16:56.868Z,20.75
2023-05-09T13:18:36.614Z,20.76
2023-05-09T13:20:16.377Z,20.8
2023-05-09T13:21:56.123Z,20.82
2023-05-09T13:23:35.941Z,20.89
2023-05-09T13:25:15.689Z,20.94
2023-05-09T13:26:55.494Z,20.98
2023-05-09T13:28:35.184Z,21.02
2023-05-09T13:30:14.994Z,21.05
2023-05-09T13:31:54.714Z,21.07
2023-05-09T13:33:34.526Z,21.11
2023-05-09T13:35:14.251Z,21.18
2023-05-09T13:38:33.766Z,21.31
2023-05-09T13:40:13.553Z,21.36
2023-05-09T13:41:53.295Z,21.34
2023-05-09T13:43:33.123Z,21.42
2023-05-09T13:45:12.826Z,21.46
2023-05-09T13:46:52.593Z,21.47
2023-05-09T13:48:32.375Z,21.52
2023-05-09T13:50:12.122Z,21.58
2023-05-09T13:51:51.884Z,21.62
2023-05-09T13:53:31.686Z,21.62
2023-05-09T13:55:11.422Z,21.63
2023-05-09T13:56:51.189Z,21.63
2023-05-09T13:58:30.941Z,21.64
2023-05-09T14:00:10.701Z,21.66
2023-05-09T14:01:50.509Z,21.68
2023-05-09T14:03:30.268Z,21.73
2023-05-09T14:05:09.997Z,21.8
2023-05-09T14:06:49.765Z,21.82
2023-05-09T14:08:29.544Z,21.8
2023-05-09T14:10:09.350Z,21.89
2023-05-09T14:11:49.077Z,21.94
2023-05-09T14:13:28.827Z,22
2023-05-09T14:15:08.594Z,22.03
2023-05-09T14:16:48.370Z,22.1
2023-05-09T14:18:28.172Z,22.11
2023-05-09T14:20:07.870Z,22.17
2023-05-09T14:21:47.634Z,22.2
2023-05-09T14:23:27.407Z,22.2
2023-05-09T14:25:07.184Z,22.3
2023-05-09T14:26:46.935Z,22.3
2023-05-09T14:28:26.759Z,22.3
2023-05-09T14:30:06.476Z,22.3
2023-05-09T14:31:46.234Z,22.34
2023-05-09T14:33:25.998Z,22.32
2023-05-09T14:35:05.770Z,22.31
2023-05-09T14:36:45.527Z,22.3
2023-05-09T14:38:25.274Z,22.32
2023-05-09T14:40:05.060Z,22.36
2023-05-09T14:41:44.806Z,22.43
2023-05-09T14:43:24.591Z,22.46
2023-05-09T14:45:04.343Z,22.46
2023-05-09T14:46:44.115Z,22.45
2023-05-09T14:48:23.872Z,22.45
2023-05-09T14:50:03.624Z,22.47
2023-05-09T14:51:43.402Z,22.48
2023-05-09T14:53:23.155Z,22.49
2023-05-09T14:55:02.940Z,22.49
2023-05-09T14:56:42.747Z,22.5
2023-05-09T14:58:22.446Z,22.49
2023-05-09T15:00:02.301Z,22.5
2023-05-09T15:01:41.983Z,22.47
2023-05-09T15:03:21.756Z,22.47
2023-05-09T15:05:01.503Z,22.42
2023-05-09T15:06:41.276Z,22.38
2023-05-09T15:08:21.055Z,22.33
2023-05-09T15:10:00.801Z,22.31
2023-05-09T15:11:40.580Z,22.25
2023-05-09T15:13:20.339Z,22.19
2023-05-09T15:15:00.091Z,22.1
2023-05-09T15:16:39.875Z,22.03
2023-05-09T15:18:19.638Z,21.94
2023-05-09T15:19:59.385Z,21.82
2023-05-09T15:21:39.170Z,21.75
2023-05-09T15:23:18.919Z,21.69
2023-05-09T15:24:58.690Z,21.56
2023-05-09T15:26:38.442Z,21.58
2023-05-09T15:28:18.210Z,21.5
2023-05-09T15:29:57.972Z,21.36
2023-05-09T15:31:37.765Z,21.24
2023-05-09T15:33:17.608Z,21.1
2023-05-09T15:34:57.317Z,20.96
2023-05-09T15:36:37.041Z,20.84
2023-05-09T15:38:16.871Z,20.77
2023-05-09T15:39:56.591Z,20.68
2023-05-09T15:41:36.329Z,20.61
2023-05-09T15:43:16.114Z,20.56
2023-05-09T15:44:55.854Z,20.49
2023-05-09T15:46:35.617Z,20.44
2023-05-09T15:48:15.382Z,20.41
2023-05-09T15:49:55.155Z,20.35
2023-05-09T15:53:14.673Z,20.19
2023-05-09T15:54:54.437Z,20.2
2023-05-09T15:59:53.726Z,20.1
2023-05-09T16:01:33.497Z,20.04
2023-05-09T16:03:13.312Z,20.02
2023-05-09T16:04:53.032Z,19.96
2023-05-09T16:06:32.793Z,19.95
2023-05-09T16:08:12.589Z,19.93
2023-05-09T16:09:52.342Z,19.87
2023-05-09T16:11:32.083Z,19.85
2023-05-09T16:13:11.856Z,19.83
2023-05-09T16:14:51.696Z,19.79
2023-05-09T16:16:31.363Z,19.76
2023-05-09T16:18:11.225Z,19.7
2023-05-09T16:19:50.922Z,19.69
2023-05-09T16:21:30.661Z,19.62
2023-05-09T16:24:50.194Z,19.56
2023-05-09T16:26:29.961Z,19.54
2023-05-09T16:28:09.716Z,19.5
2023-05-09T16:29:49.481Z,19.49
2023-05-09T16:31:29.244Z,19.45
2023-05-09T16:33:09.020Z,19.43
2023-05-09T16:34:48.772Z,19.4
2023-05-09T16:36:28.535Z,19.36
2023-05-09T16:38:08.302Z,19.33
2023-05-09T16:39:48.071Z,19.32
2023-05-09T16:41:27.828Z,19.29
2023-05-09T16:43:07.582Z,19.26
2023-05-09T16:44:47.365Z,19.16
2023-05-09T16:46:27.128Z,19.19
2023-05-09T16:48:06.881Z,19.17
2023-05-09T16:49:46.653Z,19.14
2023-05-09T16:51:26.430Z,19.1
2023-05-09T16:53:06.200Z,19.08
2023-05-09T16:54:45.938Z,19.02
2023-05-09T16:56:25.697Z,19
2023-05-09T16:58:05.459Z,18.95
2023-05-09T16:59:45.232Z,18.93
2023-05-09T17:01:25.015Z,18.9
2023-05-09T17:03:04.761Z,18.87
2023-05-09T17:04:44.530Z,18.83
2023-05-09T17:06:24.297Z,18.79
2023-05-09T17:08:04.053Z,18.75
2023-05-09T17:09:43.813Z,18.7
2023-05-09T17:11:23.580Z,18.69
2023-05-09T17:13:03.344Z,18.65
2023-05-09T17:14:43.123Z,18.62
2023-05-09T17:16:22.878Z,18.58
2023-05-09T17:18:02.643Z,18.54
2023-05-09T17:19:42.406Z,18.52
2023-05-09T17:21:22.302Z,18.49
2023-05-09T17:23:01.931Z,18.46
2023-05-09T17:24:41.792Z,18.49
2023-05-09T17:26:21.453Z,18.39
2023-05-09T17:28:01.241Z,18.37
2023-05-09T17:29:40.980Z,18.36
2023-05-09T17:31:20.754Z,18.35
2023-05-09T17:33:00.541Z,18.33
2023-05-09T17:34:40.278Z,18.32
2023-05-09T17:36:20.170Z,18.29
2023-05-09T17:37:59.807Z,18.29
2023-05-09T17:39:39.573Z,18.28
2023-05-09T17:41:19.320Z,18.27
2023-05-09T17:42:59.108Z,18.27
2023-05-09T17:44:38.872Z,18.25
2023-05-09T17:46:18.675Z,18.19
2023-05-09T17:47:58.393Z,18.19
2023-05-09T17:49:38.181Z,18.18
2023-05-09T17:51:17.913Z,18.12
2023-05-09T17:52:57.698Z,18.12
2023-05-09T17:54:37.450Z,18.09
2023-05-09T17:56:17.210Z,18.04
2023-05-09T17:57:56.985Z,18
2023-05-09T17:59:36.755Z,17.95
2023-05-09T18:01:16.494Z,17.89
2023-05-09T18:02:56.273Z,17.81
2023-05-09T18:04:36.028Z,17.76
2023-05-09T18:06:15.799Z,17.71
2023-05-09T18:07:55.574Z,17.68
2023-05-09T18:09:35.345Z,17.62
2023-05-09T18:11:15.352Z,17.57
2023-05-09T18:12:54.856Z,17.56
2023-05-09T18:14:34.627Z,17.5
2023-05-09T18:16:14.387Z,17.45
2023-05-09T18:17:54.138Z,17.41
2023-05-09T18:19:33.912Z,17.37
2023-05-09T18:21:13.672Z,17.34
2023-05-09T18:22:53.427Z,17.27
2023-05-09T18:24:33.199Z,17.25
2023-05-09T18:26:12.972Z,17.2
2023-05-09T18:27:52.730Z,17.17
2023-05-09T18:29:32.491Z,17.12
2023-05-09T18:31:12.248Z,17.09
2023-05-09T18:32:52.025Z,17.08
2023-05-09T18:36:11.648Z,16.96
2023-05-09T18:37:51.365Z,16.94
2023-05-09T18:39:31.074Z,16.91
2023-05-09T18:41:10.849Z,16.87
2023-05-09T18:42:50.625Z,16.84
2023-05-09T18:44:30.378Z,16.79
2023-05-09T18:46:10.187Z,16.77
2023-05-09T18:47:49.883Z,16.73
2023-05-09T18:49:29.661Z,16.69
2023-05-09T18:51:09.424Z,16.66
2023-05-09T18:52:49.183Z,16.61
2023-05-09T18:54:28.956Z,16.6
2023-05-09T18:56:08.785Z,16.54
2023-05-09T18:57:48.478Z,16.51
2023-05-09T18:59:28.258Z,16.48
2023-05-09T19:01:07.999Z,16.45
2023-05-09T19:02:47.778Z,16.42
2023-05-09T19:04:27.612Z,16.4
2023-05-09T19:06:07.302Z,16.36
2023-05-09T19:07:47.049Z,16.32
2023-05-09T19:09:27.000Z,16.28
2023-05-09T19:11:06.630Z,16.24
2023-05-09T19:12:46.516Z,16.21
2023-05-09T19:14:26.240Z,16.18
2023-05-09T19:16:05.997Z,16.15
2023-05-09T19:17:45.807Z,16.12
2023-05-09T19:19:25.428Z,16.08
2023-05-09T19:21:05.246Z,16.04
2023-05-09T19:22:44.942Z,16.02
2023-05-09T19:24:24.773Z,16
2023-05-09T19:27:44.222Z,15.94
2023-05-09T19:29:23.989Z,15.91
2023-05-09T19:31:03.771Z,15.86
2023-05-09T19:32:43.627Z,15.82
2023-05-09T19:34:23.349Z,15.79
2023-05-09T19:36:03.117Z,15.76
2023-05-09T19:37:42.831Z,15.73
2023-05-09T19:39:22.620Z,15.7
2023-05-09T19:41:02.350Z,15.68
2023-05-09T19:42:42.099Z,15.64
2023-05-09T19:44:21.874Z,15.63
2023-05-09T19:46:01.761Z,15.59
2023-05-09T19:47:41.517Z,15.57
2023-05-09T19:49:21.157Z,15.53
2023-05-09T19:51:00.986Z,15.5
2023-05-09T19:52:40.770Z,15.47
2023-05-09T19:54:20.579Z,15.43
2023-05-09T19:56:00.262Z,15.4
2023-05-09T19:57:40.105Z,15.36
2023-05-09T19:59:19.779Z,15.34
2023-05-09T20:00:59.683Z,15.3
2023-05-09T20:02:39.349Z,15.28
2023-05-09T20:04:19.034Z,15.23
2023-05-09T20:05:58.814Z,15.22
2023-05-09T20:07:38.561Z,15.18
2023-05-09T20:09:18.388Z,15.14
2023-05-09T20:10:58.091Z,15.14
2023-05-09T20:12:37.862Z,15.1
2023-05-09T20:14:17.732Z,15.06
2023-05-09T20:15:57.465Z,15.04
2023-05-09T20:17:37.157Z,15.01
2023-05-09T20:19:16.993Z,15
2023-05-09T20:20:56.674Z,14.95
2023-05-09T20:22:36.512Z,14.94
2023-05-09T20:24:16.209Z,14.9
2023-05-09T20:25:56.019Z,14.87
2023-05-09T20:27:35.815Z,14.84
2023-05-09T20:29:15.517Z,14.8
2023-05-09T20:30:55.320Z,14.77
2023-05-09T20:32:35.038Z,14.73
2023-05-09T20:34:14.895Z,14.7
2023-05-09T20:35:54.658Z,14.67
2023-05-09T20:37:34.336Z,14.63
2023-05-09T20:39:14.078Z,14.6
2023-05-09T20:40:53.897Z,14.59
2023-05-09T20:42:33.596Z,14.56
2023-05-09T20:44:13.377Z,14.52
2023-05-09T20:45:53.122Z,14.5
2023-05-09T20:47:32.898Z,14.49
2023-05-09T20:49:12.716Z,14.47
2023-05-09T20:50:52.478Z,14.42
2023-05-09T20:52:32.215Z,14.42
2023-05-09T20:54:11.966Z,14.38
2023-05-09T20:55:51.751Z,14.36
2023-05-09T20:57:31.476Z,14.34
2023-05-09T20:59:11.262Z,14.3
2023-05-09T21:00:51.009Z,14.28
2023-05-09T21:02:30.885Z,14.25
2023-05-09T21:04:10.563Z,14.23
2023-05-09T21:05:50.298Z,14.2
2023-05-09T21:07:30.094Z,14.16
2023-05-09T21:09:09.837Z,14.15
2023-05-09T21:10:49.587Z,14.12
2023-05-09T21:12:29.376Z,14.08
2023-05-09T21:14:09.173Z,14.07
2023-05-09T21:15:48.880Z,14.04
2023-05-09T21:17:28.653Z,14.01
2023-05-09T21:19:08.412Z,13.99
2023-05-09T21:20:48.211Z,13.95
2023-05-09T21:22:27.943Z,13.95
2023-05-09T21:24:07.705Z,13.93
2023-05-09T21:25:47.483Z,13.9
2023-05-09T21:27:27.237Z,13.86
2023-05-09T21:29:07.010Z,13.85
2023-05-09T21:30:46.774Z,13.83
2023-05-09T21:32:26.521Z,13.81
2023-05-09T21:34:06.277Z,13.79
2023-05-09T21:35:46.056Z,13.75
2023-05-09T21:37:25.818Z,13.73
2023-05-09T21:39:05.578Z,13.71
2023-05-09T21:40:45.354Z,13.69
2023-05-09T21:42:25.122Z,13.67
2023-05-09T21:44:04.881Z,13.65
2023-05-09T21:45:44.626Z,13.61
2023-05-09T21:47:24.436Z,13.59
2023-05-09T21:49:04.167Z,13.59
2023-05-09T21:50:43.925Z,13.57
2023-05-09T21:52:23.688Z,13.52
2023-05-09T21:54:03.471Z,13.51
2023-05-09T21:55:43.218Z,13.5
2023-05-09T21:57:22.972Z,13.47
2023-05-09T21:59:02.750Z,13.44
2023-05-09T22:00:42.536Z,13.43
2023-05-09T22:02:22.311Z,13.4
2023-05-09T22:04:02.061Z,13.36
2023-05-09T22:05:41.821Z,13.32
2023-05-09T22:07:21.633Z,13.3
2023-05-09T22:09:01.313Z,13.28
2023-05-09T22:10:41.097Z,13.26
2023-05-09T22:12:20.881Z,13.24
2023-05-09T22:14:00.716Z,13.21
2023-05-09T22:15:40.441Z,13.19
2023-05-09T22:17:20.170Z,13.17
2023-05-09T22:18:59.903Z,13.14
2023-05-09T22:22:19.438Z,13.09
2023-05-09T22:23:59.197Z,13.06
2023-05-09T22:25:38.955Z,13.05
2023-05-09T22:27:18.752Z,13.02
2023-05-09T22:30:38.254Z,12.98
2023-05-09T22:32:18.024Z,12.97
2023-05-09T22:33:57.787Z,12.93
2023-05-09T22:35:37.562Z,12.93
2023-05-09T22:37:17.304Z,12.89
2023-05-09T22:38:57.070Z,12.86
2023-05-09T22:40:36.836Z,12.85